Time;durP1;ratioP1;P1;durP2;ratioP2;P2;SDS_P1;SDS_P2;PMS_P1;PMS_P2;Temp;Humidity;BMP_temperature;BMP_pressure;BME280_temperature;BME280_humidity;BME280_pressure;Samples;Min_cycle;Max_cycle;Signal;HPM_P1;HPM_P2
2022/03/17 00:00:19;;;;;;;17.03;7.57;;;;;;;19.26;52.20;100777.16;5043216;28;20540;-61
2022/03/17 00:02:45;;;;;;;12.20;7.17;;;;;;;19.27;52.19;100773.88;5051746;28;20172;-61
2022/03/17 00:05:11;;;;;;;16.67;7.30;;;;;;;19.25;52.13;100766.88;5052582;28;20214;-61
2022/03/17 00:07:37;;;;;;;15.37;7.93;;;;;;;19.22;52.09;100774.19;5052540;28;20207;-62
2022/03/17 00:10:07;;;;;;;17.90;7.00;;;;;;;19.23;52.19;100772.16;5051500;28;20454;-62
2022/03/17 00:12:33;;;;;;;14.10;7.00;;;;;;;19.20;52.24;100770.84;5052063;28;20465;-62
2022/03/17 00:14:59;;;;;;;21.77;7.27;;;;;;;19.20;52.12;100770.00;5052176;28;20423;-62
2022/03/17 00:17:25;;;;;;;16.33;8.40;;;;;;;19.21;52.11;100777.41;5050137;28;20469;-62
2022/03/17 00:19:51;;;;;;;16.67;6.50;;;;;;;19.17;52.09;100776.50;5051692;28;20194;-62
2022/03/17 00:22:16;;;;;;;11.80;6.97;;;;;;;19.18;52.23;100772.41;5034556;28;20426;-62
2022/03/17 00:24:43;;;;;;;14.13;7.03;;;;;;;19.15;52.39;100768.28;5034618;28;20188;-62
2022/03/17 00:27:08;;;;;;;15.33;7.00;;;;;;;19.16;52.52;100769.13;5031642;28;20176;-62
2022/03/17 00:29:35;;;;;;;9.40;6.30;;;;;;;19.12;52.45;100757.56;5038272;28;20430;-62
2022/03/17 00:32:00;;;;;;;14.10;6.67;;;;;;;19.11;52.40;100755.91;5051658;28;20182;-62
2022/03/17 00:34:26;;;;;;;12.13;6.13;;;;;;;19.15;52.47;100767.44;5051809;28;20418;-61
2022/03/17 00:36:51;;;;;;;15.77;7.77;;;;;;;19.15;52.36;100768.28;5051819;28;20196;-61
2022/03/17 00:39:17;;;;;;;13.23;7.30;;;;;;;19.15;52.18;100776.84;5051291;28;20187;-61
2022/03/17 00:41:43;;;;;;;8.90;6.10;;;;;;;19.16;52.07;100777.69;5050819;28;20195;-61
2022/03/17 00:44:09;;;;;;;10.60;6.60;;;;;;;19.12;52.35;100786.19;5052040;28;20175;-62
2022/03/17 00:46:36;;;;;;;8.77;5.97;;;;;;;19.14;52.11;100772.34;5051784;28;20841;-62
2022/03/17 00:49:01;;;;;;;12.47;6.10;;;;;;;19.15;52.56;100773.16;5051050;28;20916;-62
2022/03/17 00:51:27;;;;;;;10.50;6.20;;;;;;;19.18;52.17;100767.53;5051249;28;20418;-62
2022/03/17 00:53:52;;;;;;;9.07;5.90;;;;;;;19.16;52.29;100777.69;5051470;28;20183;-62
2022/03/17 00:56:17;;;;;;;11.83;6.23;;;;;;;19.15;52.25;100779.72;5051156;28;20192;-62
2022/03/17 00:58:45;;;;;;;10.90;6.20;;;;;;;19.14;52.25;100778.06;5051297;28;20183;-62
2022/03/17 01:01:13;;;;;;;9.60;5.93;;;;;;;19.16;52.07;100775.66;5042272;28;20270;-62
2022/03/17 01:03:39;;;;;;;10.63;5.47;;;;;;;19.18;51.85;100773.25;5051583;28;20446;-62
2022/03/17 01:06:04;;;;;;;9.67;5.87;;;;;;;19.16;52.17;100787.09;5050960;28;20418;-62
2022/03/17 01:08:30;;;;;;;8.43;5.47;;;;;;;19.18;52.07;100783.88;5051384;28;20426;-62
2022/03/17 01:10:55;;;;;;;10.77;5.90;;;;;;;19.14;52.21;100791.53;5050068;28;20592;-62
2022/03/17 01:13:21;;;;;;;10.07;5.20;;;;;;;19.14;52.10;100792.38;5047946;28;20662;-62
2022/03/17 01:15:46;;;;;;;13.53;5.93;;;;;;;19.18;51.78;100795.31;5051380;28;20738;-62
2022/03/17 01:18:12;;;;;;;11.00;5.30;;;;;;;19.16;51.98;100800.59;5033821;28;20184;-62
2022/03/17 01:20:37;;;;;;;9.30;4.93;;;;;;;19.16;52.06;100797.75;5034856;28;20179;-62
2022/03/17 01:23:04;;;;;;;11.10;6.00;;;;;;;19.15;52.41;100799.75;5050649;28;20698;-62
2022/03/17 01:25:31;;;;;;;11.03;6.00;;;;;;;19.17;52.13;100799.41;5050550;28;20572;-62
2022/03/17 01:27:57;;;;;;;9.87;6.00;;;;;;;19.18;52.12;100792.47;5050235;28;20422;-62
2022/03/17 01:30:23;;;;;;;8.13;5.53;;;;;;;19.12;51.97;100800.50;5038052;28;20416;-62
2022/03/17 01:32:48;;;;;;;10.20;5.60;;;;;;;19.11;52.41;100800.88;5033010;28;20433;-62
2022/03/17 01:35:13;;;;;;;7.70;5.60;;;;;;;19.12;52.01;100803.34;5030930;28;20180;-62
2022/03/17 01:37:39;;;;;;;11.33;5.70;;;;;;;19.11;52.07;100790.25;5031068;28;20173;-62
2022/03/17 01:40:06;;;;;;;9.20;5.47;;;;;;;19.10;52.05;100794.31;5030065;28;20176;-62
2022/03/17 01:42:32;;;;;;;8.67;5.83;;;;;;;19.13;51.82;100795.63;5013079;28;20169;-62
2022/03/17 01:44:57;;;;;;;7.20;5.50;;;;;;;19.10;51.83;100799.19;5047787;28;20418;-62
2022/03/17 01:47:29;;;;;;;6.90;5.33;;;;;;;19.09;52.30;100797.56;5032462;28;20422;-62
2022/03/17 01:50:15;;;;;;;9.23;5.53;;;;;;;19.08;52.17;100807.34;5050035;28;20172;-62
2022/03/17 01:52:41;;;;;;;10.80;6.10;;;;;;;19.08;52.16;100808.19;5050175;28;20441;-62
2022/03/17 01:55:07;;;;;;;7.70;4.90;;;;;;;19.05;52.27;100805.22;5050576;28;20414;-62
2022/03/17 01:57:32;;;;;;;10.13;5.57;;;;;;;19.06;52.38;100809.75;5049666;28;20208;-62
2022/03/17 01:59:58;;;;;;;9.20;5.77;;;;;;;19.04;52.20;100812.16;5048462;28;20787;-62
2022/03/17 02:02:24;;;;;;;13.33;5.47;;;;;;;19.04;52.42;100807.25;5012635;28;20596;-62
2022/03/17 02:04:50;;;;;;;9.10;5.50;;;;;;;19.07;52.36;100806.50;5029967;28;20192;-62
2022/03/17 02:07:15;;;;;;;7.07;4.90;;;;;;;19.04;51.96;100806.44;5038585;28;20417;-62
2022/03/17 02:09:42;;;;;;;7.97;5.70;;;;;;;19.01;52.28;100808.00;5049835;28;20707;-62
2022/03/17 02:14:58;;;;;;;8.80;5.30;;;;;;;19.01;52.28;100808.00;5050096;28;20393;-62
2022/03/17 02:17:24;;;;;;;9.33;5.63;;;;;;;19.04;52.12;100807.25;5049250;28;20462;-62
2022/03/17 02:19:50;;;;;;;8.40;5.57;;;;;;;19.03;52.49;100811.34;5046108;28;20419;-62
2022/03/17 02:22:17;;;;;;;8.20;5.07;;;;;;;19.03;52.05;100810.50;5032213;28;20176;-62
2022/03/17 02:27:28;;;;;;;9.73;5.70;;;;;;;19.04;52.24;100826.47;5029624;28;20482;-62
2022/03/17 02:29:53;;;;;;;6.70;4.87;;;;;;;19.01;52.18;100819.44;5038630;28;20440;-62
2022/03/17 02:32:20;;;;;;;6.83;4.23;;;;;;;19.04;52.19;100817.88;5049605;28;20493;-62
2022/03/17 02:34:46;;;;;;;7.03;5.33;;;;;;;19.07;52.00;100817.94;5049550;28;20172;-62
2022/03/17 02:37:12;;;;;;;8.90;5.10;;;;;;;19.05;52.02;100820.38;5049198;28;20999;-62
2022/03/17 02:39:38;;;;;;;7.10;4.80;;;;;;;19.05;51.98;100825.25;5049310;28;20500;-62
2022/03/17 02:42:04;;;;;;;6.90;5.10;;;;;;;19.02;52.10;100832.53;5049722;28;20513;-62
2022/03/17 02:44:29;;;;;;;8.53;4.67;;;;;;;19.03;52.22;100833.38;5049546;28;20175;-62
2022/03/17 02:46:55;;;;;;;10.37;5.50;;;;;;;19.03;52.31;100830.53;5049387;28;20172;-62
2022/03/17 02:49:20;;;;;;;7.93;5.27;;;;;;;19.02;52.11;100831.72;5048436;28;20175;-62
2022/03/17 02:51:46;;;;;;;7.40;4.63;;;;;;;19.02;52.19;100841.13;5049568;28;20179;-62
2022/03/17 02:54:12;;;;;;;5.47;4.20;;;;;;;19.03;52.14;100836.25;5049892;28;20210;-62
2022/03/17 02:56:37;;;;;;;8.33;4.90;;;;;;;19.00;52.17;100837.81;5048871;28;20183;-62
2022/03/17 02:59:02;;;;;;;7.73;4.90;;;;;;;19.03;52.08;100839.94;5047353;28;20183;-62
2022/03/17 03:01:28;;;;;;;9.20;5.17;;;;;;;19.01;52.27;100836.63;5049258;28;20179;-62
2022/03/17 03:03:53;;;;;;;5.97;4.30;;;;;;;19.00;52.30;100845.56;5049413;28;20203;-62
2022/03/17 03:06:19;;;;;;;6.60;4.37;;;;;;;19.00;52.10;100842.69;5048983;28;20540;-62
2022/03/17 03:08:44;;;;;;;9.47;5.23;;;;;;;19.03;51.86;100844.84;5049184;28;20179;-62
2022/03/17 03:11:10;;;;;;;6.23;3.90;;;;;;;19.00;52.32;100846.41;5045930;28;20223;-62
2022/03/17 03:13:36;;;;;;;13.03;4.63;;;;;;;19.01;51.96;100848.06;5049432;28;20610;-62
2022/03/17 03:16:02;;;;;;;7.67;5.00;;;;;;;19.04;52.12;100855.06;5048920;28;20476;-62
2022/03/17 03:18:28;;;;;;;6.93;4.50;;;;;;;19.01;52.10;100862.38;5028586;28;20435;-62
2022/03/17 03:20:54;;;;;;;7.50;4.83;;;;;;;19.01;52.06;100868.09;5027666;28;20446;-62
2022/03/17 03:23:20;;;;;;;8.10;4.93;;;;;;;19.05;51.85;100862.44;5029511;28;20679;-62
2022/03/17 03:25:45;;;;;;;7.27;4.80;;;;;;;19.01;51.91;100868.09;5029090;28;20419;-62
2022/03/17 03:28:11;;;;;;;7.53;4.53;;;;;;;19.00;52.28;100869.31;5045555;28;20175;-62
2022/03/17 03:30:37;;;;;;;7.40;4.60;;;;;;;19.00;52.16;100868.47;5048747;28;20180;-62
2022/03/17 03:33:03;;;;;;;6.00;4.50;;;;;;;18.98;52.36;100877.44;5049111;28;20183;-62
2022/03/17 03:38:12;;;;;;;6.67;4.40;;;;;;;19.02;51.91;100877.53;5047660;28;20661;-62
2022/03/17 03:40:38;;;;;;;7.20;5.10;;;;;;;19.00;52.13;100875.03;5045550;28;20410;-62
2022/03/17 03:43:03;;;;;;;5.60;4.00;;;;;;;19.00;52.07;100880.75;5048528;28;20191;-61
2022/03/17 03:45:29;;;;;;;7.27;4.80;;;;;;;18.98;52.23;100888.88;5049426;28;20230;-61
2022/03/17 03:47:54;;;;;;;8.43;4.20;;;;;;;19.01;52.11;100893.84;5048851;28;20198;-62
2022/03/17 03:50:20;;;;;;;5.67;4.30;;;;;;;19.00;51.91;100897.91;5048714;28;20180;-62
2022/03/17 03:52:45;;;;;;;6.73;4.40;;;;;;;19.01;52.05;100895.91;5051424;28;20218;-62
2022/03/17 03:55:11;;;;;;;6.23;4.20;;;;;;;19.00;52.07;100895.06;5052909;28;20226;-62
2022/03/17 03:57:36;;;;;;;7.57;4.33;;;;;;;19.02;51.93;100901.22;5052360;28;20214;-62
2022/03/17 04:00:11;;;;;;;6.03;4.07;;;;;;;19.00;52.25;100897.91;5052232;28;20191;-62
2022/03/17 04:02:36;;;;;;;6.57;4.20;;;;;;;19.01;52.16;100902.44;5052035;28;20194;-62
2022/03/17 04:05:02;;;;;;;7.67;4.70;;;;;;;18.99;52.08;100904.00;5052448;28;20810;-62
2022/03/17 04:07:27;;;;;;;7.20;4.93;;;;;;;19.01;52.05;100910.19;5052014;28;20183;-62
2022/03/17 04:09:53;;;;;;;7.20;4.30;;;;;;;19.00;52.19;100905.66;5051503;28;20227;-62
2022/03/17 04:12:20;;;;;;;6.00;4.33;;;;;;;19.00;52.05;100909.38;5051981;28;20172;-62
2022/03/17 04:14:45;;;;;;;7.90;4.80;;;;;;;19.03;51.90;100908.63;5052437;28;20276;-62
2022/03/17 04:17:10;;;;;;;5.70;3.93;;;;;;;18.99;52.07;100919.16;5052306;28;20453;-62
2022/03/17 04:19:36;;;;;;;6.33;4.33;;;;;;;19.00;51.83;100917.09;5051380;28;20176;-62
2022/03/17 04:22:02;;;;;;;5.80;4.20;;;;;;;18.99;51.79;100918.31;5052279;28;20183;-62
2022/03/17 04:24:27;;;;;;;6.10;4.40;;;;;;;18.98;52.15;100916.66;5050770;28;20182;-62
2022/03/17 04:26:53;;;;;;;6.73;4.87;;;;;;;19.02;51.88;100911.84;5048900;28;20490;-62
2022/03/17 04:29:18;;;;;;;7.80;4.40;;;;;;;18.97;51.87;100915.81;5051469;28;20655;-62
2022/03/17 04:31:44;;;;;;;6.17;4.40;;;;;;;19.00;52.10;100914.25;5052011;28;20179;-62
2022/03/17 04:34:09;;;;;;;7.93;4.20;;;;;;;18.97;52.17;100915.81;5051983;28;20541;-62
2022/03/17 04:36:35;;;;;;;5.63;4.17;;;;;;;18.99;51.75;100913.44;5051832;28;20546;-62
2022/03/17 04:39:01;;;;;;;7.63;4.47;;;;;;;18.97;52.02;100910.09;5051227;28;20195;-62
2022/03/17 04:41:26;;;;;;;5.30;4.20;;;;;;;18.98;51.95;100908.06;5051804;28;20699;-62
2022/03/17 04:43:52;;;;;;;6.40;4.57;;;;;;;18.97;52.00;100912.94;5033645;28;20194;-62
2022/03/17 04:46:17;;;;;;;5.30;4.10;;;;;;;18.97;51.81;100912.94;5051935;28;20584;-62
2022/03/17 04:48:43;;;;;;;5.53;4.23;;;;;;;18.97;51.93;100904.38;5051458;28;20195;-62
2022/03/17 04:51:08;;;;;;;6.60;4.30;;;;;;;18.97;51.81;100907.22;5051064;28;20523;-62
2022/03/17 04:53:34;;;;;;;7.47;3.90;;;;;;;18.96;52.19;100907.63;5051721;28;20176;-62
2022/03/17 04:56:00;;;;;;;5.80;4.20;;;;;;;18.96;52.18;100911.28;5051556;28;20199;-62
2022/03/17 04:58:27;;;;;;;6.80;4.37;;;;;;;18.95;52.10;100914.53;5051535;28;20555;-62
2022/03/17 05:00:53;;;;;;;4.90;4.27;;;;;;;18.97;52.25;100912.94;5050923;28;20426;-62
2022/03/17 05:03:27;;;;;;;5.63;4.20;;;;;;;18.98;51.78;100911.78;5051155;28;20410;-62
2022/03/17 05:05:53;;;;;;;7.60;4.60;;;;;;;18.98;52.04;100917.50;5051366;28;20901;-62
2022/03/17 05:08:19;;;;;;;6.57;4.27;;;;;;;18.95;52.00;100912.50;5050737;28;20442;-62
2022/03/17 05:10:44;;;;;;;5.83;3.93;;;;;;;18.98;51.95;100911.78;5050709;28;20734;-62
2022/03/17 05:13:10;;;;;;;7.97;4.53;;;;;;;19.00;51.76;100917.09;5048475;28;20180;-62
2022/03/17 05:15:36;;;;;;;5.70;3.90;;;;;;;18.96;52.08;100911.28;5051155;28;20179;-62
2022/03/17 05:18:02;;;;;;;5.67;4.20;;;;;;;18.97;51.95;100926.44;5034755;28;20419;-62
2022/03/17 05:20:28;;;;;;;6.10;3.83;;;;;;;18.97;51.90;100930.13;5030727;28;20180;-62
2022/03/17 05:22:53;;;;;;;5.03;3.87;;;;;;;18.98;51.86;100943.25;5030786;28;20744;-62
2022/03/17 05:25:19;;;;;;;7.33;4.07;;;;;;;18.94;51.93;100938.63;5033648;28;20179;-62
2022/03/17 05:27:45;;;;;;;5.50;4.27;;;;;;;18.97;52.15;100949.34;5037046;28;20180;-61
2022/03/17 05:30:12;;;;;;;6.93;4.40;;;;;;;18.96;51.99;100953.41;5050504;28;20673;-62
2022/03/17 05:32:38;;;;;;;6.67;4.33;;;;;;;18.98;51.96;100953.84;5050858;28;20183;-62
2022/03/17 05:35:03;;;;;;;6.30;4.17;;;;;;;18.98;51.68;100960.41;5050732;28;20418;-62
2022/03/17 05:37:29;;;;;;;6.43;4.90;;;;;;;18.96;51.91;100968.53;5044041;28;20296;-62
2022/03/17 05:39:54;;;;;;;8.27;3.93;;;;;;;18.96;51.57;100971.38;5030318;28;20550;-62
2022/03/17 05:42:20;;;;;;;5.00;3.83;;;;;;;18.93;51.96;100980.72;5030882;28;20194;-61
2022/03/17 05:44:45;;;;;;;6.33;4.20;;;;;;;18.98;51.77;100988.19;5030734;28;20180;-61
2022/03/17 05:47:10;;;;;;;5.23;3.80;;;;;;;18.99;51.74;100999.28;5030640;28;20183;-62
2022/03/17 05:49:36;;;;;;;5.77;3.60;;;;;;;18.97;51.77;101001.66;5030215;28;20532;-62
2022/03/17 05:52:02;;;;;;;4.67;3.50;;;;;;;18.97;51.82;101006.56;5030363;28;20636;-62
2022/03/17 05:54:28;;;;;;;4.93;3.83;;;;;;;19.00;51.92;101006.66;5030619;28;20183;-62
2022/03/17 05:56:53;;;;;;;5.03;3.60;;;;;;;18.98;51.73;101019.66;5030580;28;20554;-62
2022/03/17 05:59:19;;;;;;;6.57;4.60;;;;;;;18.94;51.84;101022.44;5034686;28;20183;-62
2022/03/17 06:01:44;;;;;;;6.20;3.90;;;;;;;19.01;51.92;101025.47;5050467;28;20206;-62
2022/03/17 06:04:09;;;;;;;7.90;3.90;;;;;;;18.99;51.89;101033.63;5049827;28;20219;-61
2022/03/17 06:06:35;;;;;;;6.00;4.37;;;;;;;18.98;51.84;101031.97;5049735;28;20175;-61
2022/03/17 06:09:01;;;;;;;4.43;3.73;;;;;;;18.98;51.90;101046.25;5049400;28;20183;-61
2022/03/17 06:11:27;;;;;;;5.60;3.90;;;;;;;18.95;52.00;101043.28;5050008;28;20220;-62
2022/03/17 06:13:53;;;;;;;7.97;4.13;;;;;;;18.94;52.45;101047.34;5049583;28;20171;-62
2022/03/17 06:16:20;;;;;;;4.90;3.70;;;;;;;18.97;51.61;101040.91;5047584;28;20453;-62
2022/03/17 06:18:46;;;;;;;5.30;3.70;;;;;;;18.99;51.86;101050.78;5030165;28;20187;-62
2022/03/17 06:21:11;;;;;;;6.10;4.43;;;;;;;19.00;51.75;101058.16;5029368;28;20785;-61
2022/03/17 06:23:37;;;;;;;4.77;3.60;;;;;;;18.96;51.82;101060.09;5030358;28;20168;-61
2022/03/17 06:26:02;;;;;;;6.00;4.03;;;;;;;18.96;51.84;101060.09;5030154;28;20171;-61
2022/03/17 06:28:28;;;;;;;5.00;3.57;;;;;;;18.94;51.99;101059.63;5032668;28;20173;-61
2022/03/17 06:30:54;;;;;;;5.40;3.57;;;;;;;18.97;51.79;101069.53;5047373;28;20199;-61
2022/03/17 06:33:20;;;;;;;5.13;3.80;;;;;;;18.96;52.06;101065.81;5050419;28;20521;-61
2022/03/17 06:35:45;;;;;;;6.30;4.23;;;;;;;18.97;51.89;101069.53;5048483;28;20446;-61
2022/03/17 06:38:11;;;;;;;5.20;3.50;;;;;;;18.93;52.12;101075.16;5050195;28;20179;-62
2022/03/17 06:40:37;;;;;;;5.73;3.80;;;;;;;18.98;51.77;101077.75;5049288;28;20537;-62
2022/03/17 06:43:03;;;;;;;5.20;3.83;;;;;;;18.97;51.83;101078.91;5048855;28;20254;-62
2022/03/17 06:45:28;;;;;;;5.30;3.63;;;;;;;18.96;52.31;101082.16;5047252;28;20433;-62
2022/03/17 06:47:54;;;;;;;4.90;3.50;;;;;;;18.96;51.72;101085.84;5049688;28;20178;-62
2022/03/17 06:50:21;;;;;;;4.97;3.90;;;;;;;18.99;51.89;101096.56;5048179;28;20606;-62
2022/03/17 06:52:46;;;;;;;5.33;3.87;;;;;;;19.00;51.55;101094.53;5049594;28;20628;-62
2022/03/17 06:55:12;;;;;;;6.03;4.03;;;;;;;18.97;51.88;101098.94;5049668;28;20423;-62
2022/03/17 06:57:37;;;;;;;5.83;3.83;;;;;;;19.00;51.81;101097.38;5048959;28;20196;-62
2022/03/17 07:00:05;;;;;;;9.70;6.27;;;;;;;18.83;51.86;101103.44;5038307;28;20192;-61
2022/03/17 07:02:30;;;;;;;26.70;17.23;;;;;;;18.63;52.57;101105.31;5047904;28;20183;-62
2022/03/17 07:04:56;;;;;;;33.50;22.27;;;;;;;18.55;51.64;101106.25;5049295;28;20441;-61
2022/03/17 07:07:21;;;;;;;46.23;32.27;;;;;;;18.54;54.89;101112.34;5049172;28;20170;-61
2022/03/17 07:09:47;;;;;;;42.17;29.37;;;;;;;18.70;53.84;101111.22;5030344;28;20793;-61
2022/03/17 07:12:12;;;;;;;44.73;29.10;;;;;;;18.78;53.10;101118.84;5049290;28;20164;-61
2022/03/17 07:14:38;;;;;;;40.93;27.00;;;;;;;18.87;52.50;101115.81;5045944;28;20634;-61
2022/03/17 07:17:04;;;;;;;36.67;25.87;;;;;;;18.96;52.95;101108.72;5040266;28;20200;-62
2022/03/17 07:19:30;;;;;;;34.73;24.60;;;;;;;19.07;52.99;101104.16;5047592;28;20513;-62
2022/03/17 07:21:55;;;;;;;46.60;25.53;;;;;;;19.15;53.22;101108.88;5049003;28;20175;-62
2022/03/17 07:24:21;;;;;;;34.70;22.90;;;;;;;19.28;52.65;101113.41;5049307;28;20171;-62
2022/03/17 07:26:46;;;;;;;33.60;22.10;;;;;;;19.32;52.92;101117.16;5050157;28;20700;-62
2022/03/17 07:29:12;;;;;;;31.53;21.27;;;;;;;19.40;53.14;101121.06;5050827;28;20226;-62
2022/03/17 07:31:37;;;;;;;29.60;21.20;;;;;;;19.47;52.57;101127.81;5053372;28;20222;-62
2022/03/17 07:34:02;;;;;;;31.10;19.53;;;;;;;19.38;53.12;101126.31;5053024;28;20176;-62
2022/03/17 07:36:28;;;;;;;39.53;21.20;;;;;;;19.36;53.62;101123.00;5052396;28;20270;-62
2022/03/17 07:38:54;;;;;;;30.00;18.60;;;;;;;19.62;53.66;101131.91;5051923;28;20606;-62
2022/03/17 07:41:20;;;;;;;24.87;17.70;;;;;;;19.57;54.31;101144.47;5046746;28;20263;-62
2022/03/17 07:43:46;;;;;;;31.00;18.07;;;;;;;19.50;53.37;101140.56;5050637;28;20812;-62
2022/03/17 07:46:12;;;;;;;28.30;18.07;;;;;;;19.45;53.26;101138.81;5051445;28;20179;-62
2022/03/17 07:48:38;;;;;;;28.13;17.33;;;;;;;19.50;53.14;101141.41;5034953;28;20448;-61
2022/03/17 07:51:03;;;;;;;26.80;17.20;;;;;;;19.44;52.30;101142.88;5033536;28;20180;-62
2022/03/17 07:53:29;;;;;;;24.13;16.80;;;;;;;19.37;51.26;101151.25;5052373;28;20319;-62
2022/03/17 07:55:55;;;;;;;24.87;15.47;;;;;;;19.28;50.97;101156.34;5052451;28;20302;-62
2022/03/17 07:58:24;;;;;;;20.83;14.53;;;;;;;19.28;50.58;101153.47;5050936;28;20168;-62
2022/03/17 08:00:51;;;;;;;23.80;14.20;;;;;;;19.23;50.71;101159.47;5051620;28;20472;-62
2022/03/17 08:03:16;;;;;;;33.13;16.90;;;;;;;19.27;51.65;101157.50;5033459;28;20463;-62
2022/03/17 08:05:44;;;;;;;25.60;15.97;;;;;;;19.23;52.68;101159.47;5051971;28;20788;-62
2022/03/17 08:08:09;;;;;;;38.07;15.63;;;;;;;19.22;52.73;101157.78;5032752;28;20689;-62
2022/03/17 08:10:35;;;;;;;23.87;15.70;;;;;;;19.17;52.97;101160.88;5050451;28;20457;-61
2022/03/17 08:13:02;;;;;;;30.60;15.70;;;;;;;19.16;52.93;101169.84;5052305;28;20175;-61
2022/03/17 08:15:27;;;;;;;27.30;15.13;;;;;;;19.17;52.85;101166.59;5052494;28;20180;-61
2022/03/17 08:17:53;;;;;;;27.93;14.70;;;;;;;19.18;52.94;101165.41;5052085;28;20481;-61
2022/03/17 08:20:19;;;;;;;25.27;15.40;;;;;;;19.20;52.82;101167.88;5051870;28;20225;-61
2022/03/17 08:22:45;;;;;;;25.03;13.80;;;;;;;19.15;52.77;101174.72;5052193;28;20168;-61
2022/03/17 08:25:10;;;;;;;22.30;13.70;;;;;;;19.15;53.06;101173.88;5052564;28;20421;-61
2022/03/17 08:27:40;;;;;;;22.63;13.97;;;;;;;19.18;53.05;101179.72;5051241;28;20191;-61
2022/03/17 08:30:06;;;;;;;26.10;13.23;;;;;;;19.15;52.95;101176.75;5043733;28;20541;-62
2022/03/17 08:32:31;;;;;;;20.80;13.17;;;;;;;19.14;53.24;101184.50;5031884;28;20430;-62
2022/03/17 08:34:57;;;;;;;19.60;12.73;;;;;;;19.15;53.06;101191.06;5032250;28;20443;-62
2022/03/17 08:37:22;;;;;;;19.87;12.07;;;;;;;19.13;53.06;101194.31;5013514;28;20667;-62
2022/03/17 08:39:50;;;;;;;23.17;12.13;;;;;;;19.13;53.11;101191.44;5031550;28;20718;-61
2022/03/17 08:42:16;;;;;;;18.40;11.50;;;;;;;19.13;53.11;101200.03;5031680;28;20176;-62
2022/03/17 08:44:41;;;;;;;20.27;12.10;;;;;;;19.14;53.11;101195.13;5032494;28;20438;-62
2022/03/17 08:49:51;;;;;;;16.27;10.17;;;;;;;19.11;53.32;101196.69;5031451;28;20191;-62
2022/03/17 08:52:16;;;;;;;15.50;10.57;;;;;;;19.13;53.11;101199.19;5031655;28;20408;-61
2022/03/17 08:54:44;;;;;;;17.93;10.50;;;;;;;19.13;53.00;101204.91;5030534;28;20172;-61
2022/03/17 08:57:11;;;;;;;16.77;10.57;;;;;;;19.11;53.35;101201.59;5031860;28;20200;-61
2022/03/17 08:59:36;;;;;;;14.20;10.00;;;;;;;19.08;53.38;101208.88;5038423;28;20449;-61
2022/03/17 09:02:11;;;;;;;21.23;10.77;;;;;;;19.11;53.18;101216.72;5051347;28;20422;-61
2022/03/17 09:04:37;;;;;;;15.63;9.80;;;;;;;19.11;53.39;101213.03;5051895;28;20253;-61
2022/03/17 09:07:03;;;;;;;19.00;10.00;;;;;;;19.11;53.22;101221.63;5049842;28;20906;-61
2022/03/17 09:09:29;;;;;;;13.67;9.50;;;;;;;19.10;53.01;101223.63;5050252;28;20361;-61
2022/03/17 09:11:54;;;;;;;13.23;9.20;;;;;;;19.10;53.31;101225.66;5051051;28;20321;-61
2022/03/17 09:14:21;;;;;;;15.87;10.03;;;;;;;19.09;53.29;101224.84;5051258;28;20896;-61
2022/03/17 09:16:46;;;;;;;14.30;9.23;;;;;;;19.10;52.47;101223.63;5047899;28;20555;-61
2022/03/17 09:19:12;;;;;;;15.47;9.90;;;;;;;19.10;53.17;101217.06;5031097;28;20419;-61
2022/03/17 09:21:37;;;;;;;13.37;9.40;;;;;;;19.12;53.18;101214.69;5029969;28;20248;-62
2022/03/17 09:24:03;;;;;;;13.57;9.70;;;;;;;19.13;52.87;101220.06;5040629;28;20179;-61
2022/03/17 09:26:30;;;;;;;15.87;10.57;;;;;;;19.13;52.81;101222.94;5050983;28;20230;-61
2022/03/17 09:28:55;;;;;;;16.10;10.27;;;;;;;19.12;53.23;101220.41;5050475;28;20422;-61
2022/03/17 09:31:22;;;;;;;14.33;9.40;;;;;;;19.08;53.12;101228.06;5050696;28;20464;-61
2022/03/17 09:33:48;;;;;;;13.27;8.70;;;;;;;19.12;53.01;101229.00;5050624;28;20639;-61
2022/03/17 09:36:13;;;;;;;17.63;8.20;;;;;;;19.11;53.04;101227.34;5035629;28;20450;-62
2022/03/17 09:38:39;;;;;;;12.13;9.10;;;;;;;19.12;53.25;101232.69;5050402;28;20539;-62
2022/03/17 09:41:23;;;;;;;14.73;9.40;;;;;;;19.09;53.01;101227.69;5050105;28;20179;-62
2022/03/17 09:43:50;;;;;;;23.20;9.47;;;;;;;19.07;52.93;101238.66;5050606;28;20402;-62
2022/03/17 09:46:15;;;;;;;16.83;9.40;;;;;;;19.08;53.20;101237.50;5050767;28;20418;-62
2022/03/17 09:48:40;;;;;;;13.10;9.00;;;;;;;19.09;53.47;101242.00;5050266;28;20924;-62
2022/03/17 09:51:06;;;;;;;14.60;9.00;;;;;;;19.07;53.16;101244.38;5049394;28;20175;-62
2022/03/17 09:53:31;;;;;;;14.80;9.13;;;;;;;19.07;52.98;101244.38;5049927;28;20580;-62
2022/03/17 09:55:57;;;;;;;11.50;8.47;;;;;;;19.07;53.13;101240.72;5050313;28;20199;-62
2022/03/17 09:58:22;;;;;;;13.13;9.07;;;;;;;19.05;53.09;101249.66;5050123;28;20168;-62
2022/03/17 10:00:48;;;;;;;17.00;8.80;;;;;;;19.06;53.30;101247.63;5049248;28;20187;-62
2022/03/17 10:03:25;;;;;;;12.20;7.93;;;;;;;19.05;53.06;101258.25;5050102;28;20160;-62
2022/03/17 10:05:51;;;;;;;13.10;8.13;;;;;;;19.07;53.14;101255.84;5050057;28;20199;-62
2022/03/17 10:08:17;;;;;;;13.30;8.10;;;;;;;19.06;53.18;101259.09;5050069;28;20429;-62
2022/03/17 10:10:43;;;;;;;13.60;8.43;;;;;;;19.02;53.22;101258.94;5049219;28;20485;-62
2022/03/17 10:13:16;;;;;;;10.43;7.90;;;;;;;19.07;53.04;101267.28;5050457;28;20403;-62
2022/03/17 10:16:20;;;;;;;15.50;8.60;;;;;;;19.04;53.11;101267.19;5050220;28;20630;-62
2022/03/17 10:18:48;;;;;;;12.67;8.57;;;;;;;19.06;53.28;101265.63;5049395;28;20490;-62
2022/03/17 10:21:24;;;;;;;12.23;8.40;;;;;;;19.08;52.86;101280.44;5049329;28;20427;-62
2022/03/17 10:24:07;;;;;;;10.93;7.50;;;;;;;19.07;53.05;101277.91;5049825;28;20390;-62
2022/03/17 10:26:49;;;;;;;10.80;7.83;;;;;;;19.09;52.84;101275.50;5050247;28;20394;-62
2022/03/17 10:29:17;;;;;;;14.93;7.80;;;;;;;19.09;52.88;101282.09;5049013;28;20418;-62
2022/03/17 10:31:59;;;;;;;13.07;7.23;;;;;;;19.12;53.18;101287.06;5049391;28;20471;-62
2022/03/17 10:34:28;;;;;;;12.50;8.30;;;;;;;19.09;53.03;101282.09;5040523;28;20425;-62
2022/03/17 10:37:15;;;;;;;12.13;8.33;;;;;;;19.07;52.84;101284.47;5049244;28;20454;-62
2022/03/17 10:39:48;;;;;;;12.10;7.77;;;;;;;19.07;53.06;101290.19;5049542;28;20432;-62
2022/03/17 10:42:21;;;;;;;11.57;7.27;;;;;;;19.08;53.09;101294.75;5049042;28;20426;-62
2022/03/17 10:44:51;;;;;;;11.73;7.40;;;;;;;19.09;52.93;101298.41;5029924;28;20427;-62
2022/03/17 10:47:27;;;;;;;10.80;7.57;;;;;;;19.08;52.85;101306.19;5029469;28;20530;-61
2022/03/17 10:50:04;;;;;;;8.77;6.27;;;;;;;19.08;52.83;101306.19;5029280;28;20429;-61
2022/03/17 10:52:55;;;;;;;11.17;7.00;;;;;;;19.09;52.86;101301.28;5028399;28;20418;-62
2022/03/17 10:55:30;;;;;;;10.50;7.00;;;;;;;19.08;52.98;101311.91;5029658;28;20408;-62
2022/03/17 10:58:19;;;;;;;11.03;6.90;;;;;;;19.07;53.08;101313.06;5029274;28;20458;-62
2022/03/17 11:00:51;;;;;;;14.30;8.20;;;;;;;19.05;53.22;101315.47;5045199;28;20476;-62
2022/03/17 11:03:18;;;;;;;12.57;6.80;;;;;;;19.05;52.96;101318.34;5049306;28;20501;-62
2022/03/17 11:05:43;;;;;;;12.00;7.70;;;;;;;19.03;53.29;101315.00;5049307;28;20414;-62
2022/03/17 11:08:10;;;;;;;9.37;6.37;;;;;;;19.04;53.21;101319.53;5049376;28;20420;-62
2022/03/17 11:10:38;;;;;;;10.33;6.43;;;;;;;19.03;53.21;101319.91;5048882;28;20234;-62
2022/03/17 11:13:11;;;;;;;10.27;6.87;;;;;;;19.05;53.38;101324.06;5029995;28;20410;-62
2022/03/17 11:15:48;;;;;;;9.13;7.17;;;;;;;19.07;53.04;101315.13;5047701;28;20391;-61
2022/03/17 11:18:18;;;;;;;11.67;7.50;;;;;;;19.03;53.13;101326.47;5029685;28;20568;-61
2022/03/17 11:20:43;;;;;;;13.27;8.00;;;;;;;19.02;53.04;101336.22;5045532;28;20420;-61
2022/03/17 11:23:15;;;;;;;10.80;7.23;;;;;;;19.04;53.21;101339.56;5049179;28;20414;-61
2022/03/17 11:25:54;;;;;;;9.20;6.40;;;;;;;19.04;53.16;101339.56;5049786;28;20169;-61
2022/03/17 11:28:40;;;;;;;12.17;7.40;;;;;;;19.02;53.25;101339.09;5043669;28;20439;-61